sensor_id;sensor_type;location;lat;lon;timestamp;P1;durP1;ratioP1;P2;durP2;ratioP2
70367;SDS011;57789;53.868;10.728;2024-02-26T00:02:04;6.47;;;3.40;;
70367;SDS011;57789;53.868;10.728;2024-02-26T00:04:32;4.43;;;3.17;;
70367;SDS011;57789;53.868;10.728;2024-02-26T00:06:57;4.70;;;3.70;;
70367;SDS011;57789;53.868;10.728;2024-02-26T00:09:23;5.13;;;3.80;;
70367;SDS011;57789;53.868;10.728;2024-02-26T00:11:49;4.60;;;3.70;;
70367;SDS011;57789;53.868;10.728;2024-02-26T00:14:15;4.83;;;3.17;;
70367;SDS011;57789;53.868;10.728;2024-02-26T00:16:40;6.50;;;2.97;;
70367;SDS011;57789;53.868;10.728;2024-02-26T00:19:07;3.37;;;2.87;;
70367;SDS011;57789;53.868;10.728;2024-02-26T00:21:32;3.47;;;2.90;;
70367;SDS011;57789;53.868;10.728;2024-02-26T00:23:58;4.10;;;2.97;;
70367;SDS011;57789;53.868;10.728;2024-02-26T00:26:24;5.53;;;3.43;;
70367;SDS011;57789;53.868;10.728;2024-02-26T00:28:50;5.97;;;2.93;;
70367;SDS011;57789;53.868;10.728;2024-02-26T00:31:16;4.77;;;2.47;;
70367;SDS011;57789;53.868;10.728;2024-02-26T00:33:41;4.40;;;2.40;;
70367;SDS011;57789;53.868;10.728;2024-02-26T00:36:07;4.27;;;3.13;;
70367;SDS011;57789;53.868;10.728;2024-02-26T00:38:33;4.87;;;3.30;;
70367;SDS011;57789;53.868;10.728;2024-02-26T00:40:59;3.10;;;2.87;;
70367;SDS011;57789;53.868;10.728;2024-02-26T00:43:24;2.60;;;2.40;;
70367;SDS011;57789;53.868;10.728;2024-02-26T00:45:50;5.13;;;2.70;;
70367;SDS011;57789;53.868;10.728;2024-02-26T00:48:17;3.30;;;2.50;;
70367;SDS011;57789;53.868;10.728;2024-02-26T00:50:43;4.70;;;3.00;;
70367;SDS011;57789;53.868;10.728;2024-02-26T00:53:09;2.80;;;2.53;;
70367;SDS011;57789;53.868;10.728;2024-02-26T00:55:34;3.30;;;2.27;;
70367;SDS011;57789;53.868;10.728;2024-02-26T00:58:02;2.97;;;2.40;;
70367;SDS011;57789;53.868;10.728;2024-02-26T01:00:27;2.30;;;2.10;;
70367;SDS011;57789;53.868;10.728;2024-02-26T01:02:53;3.07;;;2.10;;
70367;SDS011;57789;53.868;10.728;2024-02-26T01:05:19;1.70;;;1.60;;
70367;SDS011;57789;53.868;10.728;2024-02-26T01:07:45;2.20;;;2.00;;
70367;SDS011;57789;53.868;10.728;2024-02-26T01:10:11;4.23;;;2.20;;
70367;SDS011;57789;53.868;10.728;2024-02-26T01:12:36;3.70;;;2.13;;
70367;SDS011;57789;53.868;10.728;2024-02-26T01:15:02;1.50;;;1.40;;
70367;SDS011;57789;53.868;10.728;2024-02-26T01:17:29;7.20;;;2.40;;
70367;SDS011;57789;53.868;10.728;2024-02-26T01:19:55;4.30;;;1.83;;
70367;SDS011;57789;53.868;10.728;2024-02-26T01:22:21;1.60;;;1.37;;
70367;SDS011;57789;53.868;10.728;2024-02-26T01:24:47;2.30;;;2.10;;
70367;SDS011;57789;53.868;10.728;2024-02-26T01:27:13;2.20;;;1.97;;
70367;SDS011;57789;53.868;10.728;2024-02-26T01:29:40;3.73;;;1.87;;
70367;SDS011;57789;53.868;10.728;2024-02-26T01:32:07;2.67;;;1.87;;
70367;SDS011;57789;53.868;10.728;2024-02-26T01:34:32;2.70;;;2.03;;
70367;SDS011;57789;53.868;10.728;2024-02-26T01:36:58;3.00;;;2.20;;
70367;SDS011;57789;53.868;10.728;2024-02-26T01:39:24;5.90;;;3.37;;
70367;SDS011;57789;53.868;10.728;2024-02-26T01:41:50;2.90;;;2.70;;
70367;SDS011;57789;53.868;10.728;2024-02-26T01:44:16;4.97;;;3.20;;
70367;SDS011;57789;53.868;10.728;2024-02-26T01:46:41;3.90;;;3.00;;
70367;SDS011;57789;53.868;10.728;2024-02-26T01:49:08;3.53;;;2.90;;
70367;SDS011;57789;53.868;10.728;2024-02-26T01:51:37;4.57;;;3.23;;
70367;SDS011;57789;53.868;10.728;2024-02-26T01:54:05;4.10;;;3.00;;
70367;SDS011;57789;53.868;10.728;2024-02-26T01:56:32;3.70;;;2.60;;
70367;SDS011;57789;53.868;10.728;2024-02-26T01:59:00;2.23;;;1.77;;
70367;SDS011;57789;53.868;10.728;2024-02-26T02:01:27;2.43;;;1.93;;
70367;SDS011;57789;53.868;10.728;2024-02-26T02:03:56;3.37;;;2.20;;
70367;SDS011;57789;53.868;10.728;2024-02-26T02:06:23;2.77;;;2.10;;
70367;SDS011;57789;53.868;10.728;2024-02-26T02:08:49;2.87;;;2.00;;
70367;SDS011;57789;53.868;10.728;2024-02-26T02:11:16;2.80;;;2.33;;
70367;SDS011;57789;53.868;10.728;2024-02-26T02:13:42;1.77;;;1.67;;
70367;SDS011;57789;53.868;10.728;2024-02-26T02:16:08;5.33;;;1.73;;
70367;SDS011;57789;53.868;10.728;2024-02-26T02:18:34;2.23;;;1.70;;
70367;SDS011;57789;53.868;10.728;2024-02-26T02:21:00;2.53;;;1.80;;
70367;SDS011;57789;53.868;10.728;2024-02-26T02:23:26;2.70;;;1.90;;
70367;SDS011;57789;53.868;10.728;2024-02-26T02:25:52;3.13;;;2.47;;
70367;SDS011;57789;53.868;10.728;2024-02-26T02:28:20;9.13;;;2.33;;
70367;SDS011;57789;53.868;10.728;2024-02-26T02:30:46;2.37;;;2.13;;
70367;SDS011;57789;53.868;10.728;2024-02-26T02:33:13;3.53;;;2.57;;
70367;SDS011;57789;53.868;10.728;2024-02-26T02:35:40;3.10;;;2.77;;
70367;SDS011;57789;53.868;10.728;2024-02-26T02:38:06;3.90;;;2.27;;
70367;SDS011;57789;53.868;10.728;2024-02-26T02:40:32;3.20;;;1.97;;
70367;SDS011;57789;53.868;10.728;2024-02-26T02:42:57;3.07;;;2.07;;
70367;SDS011;57789;53.868;10.728;2024-02-26T02:45:25;4.30;;;2.43;;
70367;SDS011;57789;53.868;10.728;2024-02-26T02:47:51;3.37;;;2.20;;
70367;SDS011;57789;53.868;10.728;2024-02-26T02:50:17;1.87;;;1.67;;
70367;SDS011;57789;53.868;10.728;2024-02-26T02:52:42;2.67;;;2.17;;
70367;SDS011;57789;53.868;10.728;2024-02-26T02:55:08;4.10;;;2.40;;
70367;SDS011;57789;53.868;10.728;2024-02-26T02:57:34;2.37;;;1.90;;
70367;SDS011;57789;53.868;10.728;2024-02-26T03:00:06;5.83;;;1.97;;
70367;SDS011;57789;53.868;10.728;2024-02-26T03:02:33;5.40;;;1.90;;
70367;SDS011;57789;53.868;10.728;2024-02-26T03:05:01;4.90;;;2.53;;
70367;SDS011;57789;53.868;10.728;2024-02-26T03:07:30;2.23;;;1.70;;
70367;SDS011;57789;53.868;10.728;2024-02-26T03:09:56;2.50;;;1.93;;
70367;SDS011;57789;53.868;10.728;2024-02-26T03:12:22;2.33;;;1.70;;
70367;SDS011;57789;53.868;10.728;2024-02-26T03:14:48;2.80;;;2.27;;
70367;SDS011;57789;53.868;10.728;2024-02-26T03:17:14;2.93;;;2.00;;
70367;SDS011;57789;53.868;10.728;2024-02-26T03:19:39;3.83;;;2.10;;
70367;SDS011;57789;53.868;10.728;2024-02-26T03:22:05;4.30;;;3.00;;
70367;SDS011;57789;53.868;10.728;2024-02-26T03:24:32;4.10;;;2.83;;
70367;SDS011;57789;53.868;10.728;2024-02-26T03:26:57;5.57;;;3.13;;
70367;SDS011;57789;53.868;10.728;2024-02-26T03:29:23;4.10;;;3.20;;
70367;SDS011;57789;53.868;10.728;2024-02-26T03:31:49;3.90;;;2.80;;
70367;SDS011;57789;53.868;10.728;2024-02-26T03:34:15;3.60;;;2.83;;
70367;SDS011;57789;53.868;10.728;2024-02-26T03:36:41;4.20;;;2.97;;
70367;SDS011;57789;53.868;10.728;2024-02-26T03:39:07;4.20;;;2.90;;
70367;SDS011;57789;53.868;10.728;2024-02-26T03:41:33;6.73;;;3.00;;
70367;SDS011;57789;53.868;10.728;2024-02-26T03:44:00;4.00;;;3.37;;
70367;SDS011;57789;53.868;10.728;2024-02-26T03:46:26;5.27;;;3.60;;
70367;SDS011;57789;53.868;10.728;2024-02-26T03:48:51;8.30;;;3.77;;
70367;SDS011;57789;53.868;10.728;2024-02-26T03:51:17;7.10;;;4.07;;
70367;SDS011;57789;53.868;10.728;2024-02-26T03:53:43;3.17;;;2.43;;
70367;SDS011;57789;53.868;10.728;2024-02-26T03:56:08;5.50;;;3.57;;
70367;SDS011;57789;53.868;10.728;2024-02-26T03:58:38;3.97;;;2.70;;
70367;SDS011;57789;53.868;10.728;2024-02-26T04:01:04;4.77;;;2.97;;
70367;SDS011;57789;53.868;10.728;2024-02-26T04:03:32;5.53;;;3.87;;
70367;SDS011;57789;53.868;10.728;2024-02-26T04:05:58;4.53;;;3.07;;
70367;SDS011;57789;53.868;10.728;2024-02-26T04:08:23;5.80;;;3.33;;
70367;SDS011;57789;53.868;10.728;2024-02-26T04:10:49;5.70;;;3.57;;
70367;SDS011;57789;53.868;10.728;2024-02-26T04:13:15;6.47;;;3.23;;
70367;SDS011;57789;53.868;10.728;2024-02-26T04:15:42;4.57;;;3.17;;
70367;SDS011;57789;53.868;10.728;2024-02-26T04:18:08;5.20;;;3.70;;
70367;SDS011;57789;53.868;10.728;2024-02-26T04:20:33;5.20;;;3.20;;
70367;SDS011;57789;53.868;10.728;2024-02-26T04:22:59;5.93;;;4.23;;
70367;SDS011;57789;53.868;10.728;2024-02-26T04:25:25;4.37;;;3.20;;
70367;SDS011;57789;53.868;10.728;2024-02-26T04:27:51;4.60;;;2.67;;
70367;SDS011;57789;53.868;10.728;2024-02-26T04:30:17;5.13;;;3.20;;
70367;SDS011;57789;53.868;10.728;2024-02-26T04:32:43;3.93;;;2.97;;
70367;SDS011;57789;53.868;10.728;2024-02-26T04:35:10;6.27;;;3.83;;
70367;SDS011;57789;53.868;10.728;2024-02-26T04:37:37;4.97;;;2.80;;
70367;SDS011;57789;53.868;10.728;2024-02-26T04:40:03;3.80;;;3.13;;
70367;SDS011;57789;53.868;10.728;2024-02-26T04:42:29;4.60;;;3.17;;
70367;SDS011;57789;53.868;10.728;2024-02-26T04:44:55;3.67;;;2.60;;
70367;SDS011;57789;53.868;10.728;2024-02-26T04:47:21;6.00;;;3.30;;
70367;SDS011;57789;53.868;10.728;2024-02-26T04:49:48;4.63;;;3.43;;
70367;SDS011;57789;53.868;10.728;2024-02-26T04:52:14;3.40;;;2.67;;
70367;SDS011;57789;53.868;10.728;2024-02-26T04:54:40;5.40;;;4.10;;
70367;SDS011;57789;53.868;10.728;2024-02-26T04:57:06;6.13;;;3.93;;
70367;SDS011;57789;53.868;10.728;2024-02-26T04:59:31;6.20;;;3.50;;
70367;SDS011;57789;53.868;10.728;2024-02-26T05:01:57;8.53;;;3.70;;
70367;SDS011;57789;53.868;10.728;2024-02-26T05:04:23;8.27;;;3.97;;
70367;SDS011;57789;53.868;10.728;2024-02-26T05:06:49;8.87;;;3.73;;
70367;SDS011;57789;53.868;10.728;2024-02-26T05:09:15;8.13;;;4.27;;
70367;SDS011;57789;53.868;10.728;2024-02-26T05:11:41;15.97;;;5.33;;
70367;SDS011;57789;53.868;10.728;2024-02-26T05:14:07;12.93;;;5.80;;
70367;SDS011;57789;53.868;10.728;2024-02-26T05:16:33;8.00;;;4.40;;
70367;SDS011;57789;53.868;10.728;2024-02-26T05:18:58;15.27;;;5.13;;
70367;SDS011;57789;53.868;10.728;2024-02-26T05:21:24;11.20;;;4.80;;
70367;SDS011;57789;53.868;10.728;2024-02-26T05:23:50;32.03;;;6.27;;
70367;SDS011;57789;53.868;10.728;2024-02-26T05:26:20;13.33;;;5.80;;
70367;SDS011;57789;53.868;10.728;2024-02-26T05:28:48;16.17;;;4.53;;
70367;SDS011;57789;53.868;10.728;2024-02-26T05:31:14;34.17;;;5.87;;
70367;SDS011;57789;53.868;10.728;2024-02-26T05:33:41;21.90;;;7.50;;
70367;SDS011;57789;53.868;10.728;2024-02-26T05:36:07;15.40;;;5.83;;
70367;SDS011;57789;53.868;10.728;2024-02-26T05:38:33;15.47;;;5.17;;
70367;SDS011;57789;53.868;10.728;2024-02-26T05:40:59;21.27;;;7.63;;
70367;SDS011;57789;53.868;10.728;2024-02-26T05:43:25;15.23;;;6.50;;
70367;SDS011;57789;53.868;10.728;2024-02-26T05:45:51;15.93;;;6.40;;
70367;SDS011;57789;53.868;10.728;2024-02-26T05:48:17;17.40;;;7.37;;
70367;SDS011;57789;53.868;10.728;2024-02-26T05:50:44;15.10;;;6.30;;
70367;SDS011;57789;53.868;10.728;2024-02-26T05:53:11;19.53;;;6.00;;
70367;SDS011;57789;53.868;10.728;2024-02-26T05:55:36;19.20;;;5.90;;
70367;SDS011;57789;53.868;10.728;2024-02-26T05:58:02;15.00;;;6.30;;
70367;SDS011;57789;53.868;10.728;2024-02-26T06:00:28;12.27;;;5.70;;
70367;SDS011;57789;53.868;10.728;2024-02-26T06:02:54;9.80;;;4.60;;
70367;SDS011;57789;53.868;10.728;2024-02-26T06:05:20;8.10;;;4.37;;
70367;SDS011;57789;53.868;10.728;2024-02-26T06:07:45;12.40;;;4.70;;
70367;SDS011;57789;53.868;10.728;2024-02-26T06:10:12;15.23;;;6.60;;
70367;SDS011;57789;53.868;10.728;2024-02-26T06:12:41;15.27;;;6.07;;
70367;SDS011;57789;53.868;10.728;2024-02-26T06:15:07;6.67;;;3.60;;
70367;SDS011;57789;53.868;10.728;2024-02-26T06:17:34;11.77;;;5.27;;
70367;SDS011;57789;53.868;10.728;2024-02-26T06:20:00;12.87;;;5.77;;
70367;SDS011;57789;53.868;10.728;2024-02-26T06:22:26;13.17;;;5.47;;
70367;SDS011;57789;53.868;10.728;2024-02-26T06:24:52;16.87;;;5.77;;
70367;SDS011;57789;53.868;10.728;2024-02-26T06:27:18;15.07;;;5.93;;
70367;SDS011;57789;53.868;10.728;2024-02-26T06:29:44;17.73;;;5.23;;
70367;SDS011;57789;53.868;10.728;2024-02-26T06:32:10;16.13;;;6.80;;
70367;SDS011;57789;53.868;10.728;2024-02-26T06:34:35;12.00;;;4.67;;
70367;SDS011;57789;53.868;10.728;2024-02-26T06:37:03;13.13;;;6.70;;
70367;SDS011;57789;53.868;10.728;2024-02-26T06:39:29;9.43;;;4.90;;
70367;SDS011;57789;53.868;10.728;2024-02-26T06:41:54;11.10;;;5.23;;
70367;SDS011;57789;53.868;10.728;2024-02-26T06:44:25;7.77;;;4.57;;
70367;SDS011;57789;53.868;10.728;2024-02-26T06:46:56;8.73;;;4.30;;
70367;SDS011;57789;53.868;10.728;2024-02-26T06:49:23;17.63;;;5.10;;
70367;SDS011;57789;53.868;10.728;2024-02-26T06:51:49;9.27;;;5.23;;
70367;SDS011;57789;53.868;10.728;2024-02-26T06:54:15;12.90;;;5.10;;
70367;SDS011;57789;53.868;10.728;2024-02-26T06:56:41;9.40;;;4.70;;
70367;SDS011;57789;53.868;10.728;2024-02-26T06:59:07;8.27;;;4.10;;
70367;SDS011;57789;53.868;10.728;2024-02-26T07:01:33;11.37;;;5.30;;
70367;SDS011;57789;53.868;10.728;2024-02-26T07:03:59;10.63;;;5.40;;
70367;SDS011;57789;53.868;10.728;2024-02-26T07:06:25;8.90;;;4.90;;
70367;SDS011;57789;53.868;10.728;2024-02-26T07:08:54;8.07;;;4.33;;
70367;SDS011;57789;53.868;10.728;2024-02-26T07:11:20;13.13;;;3.57;;
70367;SDS011;57789;53.868;10.728;2024-02-26T07:13:46;23.10;;;10.10;;
70367;SDS011;57789;53.868;10.728;2024-02-26T07:16:12;63.90;;;27.67;;
70367;SDS011;57789;53.868;10.728;2024-02-26T07:18:39;33.67;;;14.60;;
70367;SDS011;57789;53.868;10.728;2024-02-26T07:21:05;51.70;;;22.87;;
70367;SDS011;57789;53.868;10.728;2024-02-26T07:23:30;42.60;;;17.07;;
70367;SDS011;57789;53.868;10.728;2024-02-26T07:25:56;17.03;;;7.47;;
70367;SDS011;57789;53.868;10.728;2024-02-26T07:28:22;42.67;;;19.23;;
70367;SDS011;57789;53.868;10.728;2024-02-26T07:30:48;35.83;;;13.80;;
70367;SDS011;57789;53.868;10.728;2024-02-26T07:33:14;140.03;;;58.60;;
70367;SDS011;57789;53.868;10.728;2024-02-26T07:35:40;27.43;;;11.23;;
70367;SDS011;57789;53.868;10.728;2024-02-26T07:38:06;57.20;;;24.40;;
70367;SDS011;57789;53.868;10.728;2024-02-26T07:40:31;39.93;;;18.50;;
70367;SDS011;57789;53.868;10.728;2024-02-26T07:42:57;32.77;;;14.50;;
70367;SDS011;57789;53.868;10.728;2024-02-26T07:45:23;29.33;;;12.43;;
70367;SDS011;57789;53.868;10.728;2024-02-26T07:47:49;8.37;;;5.47;;
70367;SDS011;57789;53.868;10.728;2024-02-26T07:50:16;17.57;;;7.97;;
70367;SDS011;57789;53.868;10.728;2024-02-26T07:52:42;18.57;;;9.23;;
70367;SDS011;57789;53.868;10.728;2024-02-26T07:55:09;12.87;;;6.63;;
70367;SDS011;57789;53.868;10.728;2024-02-26T07:57:35;15.70;;;7.77;;
70367;SDS011;57789;53.868;10.728;2024-02-26T08:00:01;13.60;;;6.80;;
70367;SDS011;57789;53.868;10.728;2024-02-26T08:02:29;11.20;;;5.80;;
70367;SDS011;57789;53.868;10.728;2024-02-26T08:04:55;11.27;;;6.23;;
70367;SDS011;57789;53.868;10.728;2024-02-26T08:07:20;10.80;;;5.57;;
70367;SDS011;57789;53.868;10.728;2024-02-26T08:09:47;12.20;;;6.13;;
70367;SDS011;57789;53.868;10.728;2024-02-26T08:12:12;13.60;;;6.73;;
70367;SDS011;57789;53.868;10.728;2024-02-26T08:14:38;53.17;;;25.50;;
70367;SDS011;57789;53.868;10.728;2024-02-26T08:17:04;58.00;;;28.53;;
70367;SDS011;57789;53.868;10.728;2024-02-26T08:19:30;52.00;;;24.63;;
70367;SDS011;57789;53.868;10.728;2024-02-26T08:21:56;25.33;;;13.60;;
70367;SDS011;57789;53.868;10.728;2024-02-26T08:24:22;61.97;;;29.50;;
70367;SDS011;57789;53.868;10.728;2024-02-26T08:26:48;18.30;;;10.10;;
70367;SDS011;57789;53.868;10.728;2024-02-26T08:29:14;33.20;;;16.40;;
70367;SDS011;57789;53.868;10.728;2024-02-26T08:31:40;17.23;;;9.07;;
70367;SDS011;57789;53.868;10.728;2024-02-26T08:34:06;28.27;;;13.97;;
70367;SDS011;57789;53.868;10.728;2024-02-26T08:36:33;24.67;;;13.10;;
70367;SDS011;57789;53.868;10.728;2024-02-26T08:39:00;17.20;;;9.30;;
70367;SDS011;57789;53.868;10.728;2024-02-26T08:41:26;25.37;;;12.70;;
70367;SDS011;57789;53.868;10.728;2024-02-26T08:43:51;18.83;;;9.70;;
70367;SDS011;57789;53.868;10.728;2024-02-26T08:46:17;21.10;;;10.87;;
70367;SDS011;57789;53.868;10.728;2024-02-26T08:48:43;22.13;;;11.63;;
70367;SDS011;57789;53.868;10.728;2024-02-26T08:51:09;26.00;;;12.53;;
70367;SDS011;57789;53.868;10.728;2024-02-26T08:53:35;32.40;;;14.07;;
70367;SDS011;57789;53.868;10.728;2024-02-26T08:56:01;28.40;;;12.90;;
70367;SDS011;57789;53.868;10.728;2024-02-26T08:58:27;49.87;;;22.10;;
70367;SDS011;57789;53.868;10.728;2024-02-26T09:00:54;39.33;;;18.13;;
70367;SDS011;57789;53.868;10.728;2024-02-26T09:03:20;34.40;;;18.17;;
70367;SDS011;57789;53.868;10.728;2024-02-26T09:05:46;42.53;;;20.13;;
70367;SDS011;57789;53.868;10.728;2024-02-26T09:08:12;24.90;;;13.43;;
70367;SDS011;57789;53.868;10.728;2024-02-26T09:10:38;33.80;;;17.10;;
70367;SDS011;57789;53.868;10.728;2024-02-26T09:13:04;44.23;;;19.37;;
70367;SDS011;57789;53.868;10.728;2024-02-26T09:15:30;29.33;;;13.77;;
70367;SDS011;57789;53.868;10.728;2024-02-26T09:17:56;30.70;;;15.47;;
70367;SDS011;57789;53.868;10.728;2024-02-26T09:20:22;31.57;;;12.83;;
70367;SDS011;57789;53.868;10.728;2024-02-26T09:22:48;25.90;;;13.10;;
70367;SDS011;57789;53.868;10.728;2024-02-26T09:25:15;26.83;;;11.70;;
70367;SDS011;57789;53.868;10.728;2024-02-26T09:27:44;30.33;;;14.33;;
70367;SDS011;57789;53.868;10.728;2024-02-26T09:30:10;41.63;;;19.40;;
70367;SDS011;57789;53.868;10.728;2024-02-26T09:32:37;33.33;;;16.10;;
70367;SDS011;57789;53.868;10.728;2024-02-26T09:35:03;28.80;;;14.20;;
70367;SDS011;57789;53.868;10.728;2024-02-26T09:37:30;29.90;;;14.47;;
70367;SDS011;57789;53.868;10.728;2024-02-26T09:39:55;49.73;;;22.80;;
70367;SDS011;57789;53.868;10.728;2024-02-26T09:42:21;37.37;;;18.30;;
70367;SDS011;57789;53.868;10.728;2024-02-26T09:44:51;28.03;;;14.83;;
70367;SDS011;57789;53.868;10.728;2024-02-26T09:47:23;22.13;;;12.03;;
70367;SDS011;57789;53.868;10.728;2024-02-26T09:49:50;18.37;;;10.13;;
70367;SDS011;57789;53.868;10.728;2024-02-26T09:52:18;22.50;;;12.00;;
70367;SDS011;57789;53.868;10.728;2024-02-26T09:54:48;17.17;;;10.70;;
70367;SDS011;57789;53.868;10.728;2024-02-26T09:57:14;25.53;;;12.20;;
70367;SDS011;57789;53.868;10.728;2024-02-26T09:59:42;39.83;;;20.53;;
70367;SDS011;57789;53.868;10.728;2024-02-26T10:02:11;23.90;;;13.40;;
70367;SDS011;57789;53.868;10.728;2024-02-26T10:04:39;24.27;;;13.53;;
70367;SDS011;57789;53.868;10.728;2024-02-26T10:07:07;24.50;;;13.87;;
70367;SDS011;57789;53.868;10.728;2024-02-26T10:09:36;43.13;;;13.07;;
70367;SDS011;57789;53.868;10.728;2024-02-26T10:12:02;32.47;;;16.27;;
70367;SDS011;57789;53.868;10.728;2024-02-26T10:14:32;26.80;;;13.70;;
70367;SDS011;57789;53.868;10.728;2024-02-26T10:16:58;24.70;;;13.30;;
70367;SDS011;57789;53.868;10.728;2024-02-26T10:19:29;21.00;;;12.03;;
70367;SDS011;57789;53.868;10.728;2024-02-26T10:21:58;22.63;;;12.50;;
70367;SDS011;57789;53.868;10.728;2024-02-26T10:24:29;27.93;;;14.17;;
70367;SDS011;57789;53.868;10.728;2024-02-26T10:26:56;20.80;;;11.93;;
70367;SDS011;57789;53.868;10.728;2024-02-26T10:29:23;23.07;;;11.73;;
70367;SDS011;57789;53.868;10.728;2024-02-26T10:31:53;23.33;;;12.37;;
70367;SDS011;57789;53.868;10.728;2024-02-26T10:34:19;20.70;;;11.93;;
70367;SDS011;57789;53.868;10.728;2024-02-26T10:36:46;22.10;;;11.80;;
70367;SDS011;57789;53.868;10.728;2024-02-26T10:39:14;19.80;;;10.80;;
70367;SDS011;57789;53.868;10.728;2024-02-26T10:41:40;17.83;;;10.63;;
70367;SDS011;57789;53.868;10.728;2024-02-26T10:44:10;18.90;;;11.13;;
70367;SDS011;57789;53.868;10.728;2024-02-26T10:46:38;21.73;;;10.63;;
70367;SDS011;57789;53.868;10.728;2024-02-26T10:49:07;20.43;;;11.00;;
70367;SDS011;57789;53.868;10.728;2024-02-26T10:51:45;18.77;;;10.93;;
70367;SDS011;57789;53.868;10.728;2024-02-26T10:54:16;21.20;;;11.53;;
70367;SDS011;57789;53.868;10.728;2024-02-26T10:56:42;23.83;;;11.97;;
70367;SDS011;57789;53.868;10.728;2024-02-26T10:59:11;23.53;;;13.20;;
70367;SDS011;57789;53.868;10.728;2024-02-26T11:01:37;21.90;;;11.57;;
70367;SDS011;57789;53.868;10.728;2024-02-26T11:04:06;20.07;;;11.73;;
70367;SDS011;57789;53.868;10.728;2024-02-26T11:06:33;20.03;;;12.17;;
70367;SDS011;57789;53.868;10.728;2024-02-26T11:09:00;22.43;;;11.50;;
70367;SDS011;57789;53.868;10.728;2024-02-26T11:11:28;32.27;;;16.10;;
70367;SDS011;57789;53.868;10.728;2024-02-26T11:13:56;38.13;;;17.37;;
70367;SDS011;57789;53.868;10.728;2024-02-26T11:16:24;21.97;;;11.80;;
70367;SDS011;57789;53.868;10.728;2024-02-26T11:18:52;22.80;;;11.50;;
70367;SDS011;57789;53.868;10.728;2024-02-26T11:21:20;22.23;;;10.57;;
70367;SDS011;57789;53.868;10.728;2024-02-26T11:24:03;16.53;;;10.00;;
70367;SDS011;57789;53.868;10.728;2024-02-26T11:26:31;21.67;;;12.13;;
70367;SDS011;57789;53.868;10.728;2024-02-26T11:29:05;21.40;;;12.10;;
70367;SDS011;57789;53.868;10.728;2024-02-26T11:31:35;26.77;;;14.27;;
70367;SDS011;57789;53.868;10.728;2024-02-26T11:34:03;20.40;;;11.17;;
70367;SDS011;57789;53.868;10.728;2024-02-26T11:36:29;28.80;;;15.20;;
70367;SDS011;57789;53.868;10.728;2024-02-26T11:38:55;19.50;;;11.23;;
70367;SDS011;57789;53.868;10.728;2024-02-26T11:41:21;22.37;;;11.30;;
70367;SDS011;57789;53.868;10.728;2024-02-26T11:43:57;16.70;;;10.30;;
70367;SDS011;57789;53.868;10.728;2024-02-26T11:46:29;31.73;;;16.67;;
70367;SDS011;57789;53.868;10.728;2024-02-26T11:49:00;20.73;;;11.60;;
70367;SDS011;57789;53.868;10.728;2024-02-26T11:51:51;23.43;;;13.23;;
70367;SDS011;57789;53.868;10.728;2024-02-26T11:57:29;24.90;;;14.50;;
70367;SDS011;57789;53.868;10.728;2024-02-26T12:00:14;27.30;;;15.13;;
70367;SDS011;57789;53.868;10.728;2024-02-26T12:07:48;32.10;;;16.27;;
70367;SDS011;57789;53.868;10.728;2024-02-26T12:10:23;21.47;;;11.23;;
70367;SDS011;57789;53.868;10.728;2024-02-26T12:12:53;25.90;;;12.53;;
70367;SDS011;57789;53.868;10.728;2024-02-26T12:15:23;21.50;;;11.40;;
70367;SDS011;57789;53.868;10.728;2024-02-26T12:17:49;20.80;;;11.13;;
70367;SDS011;57789;53.868;10.728;2024-02-26T12:20:16;24.67;;;13.43;;
70367;SDS011;57789;53.868;10.728;2024-02-26T12:22:46;27.27;;;12.67;;
70367;SDS011;57789;53.868;10.728;2024-02-26T12:25:13;27.03;;;13.03;;
70367;SDS011;57789;53.868;10.728;2024-02-26T12:27:39;27.33;;;13.50;;
70367;SDS011;57789;53.868;10.728;2024-02-26T12:30:05;27.90;;;15.17;;
70367;SDS011;57789;53.868;10.728;2024-02-26T12:32:32;24.13;;;12.13;;
70367;SDS011;57789;53.868;10.728;2024-02-26T12:34:58;26.70;;;13.13;;
70367;SDS011;57789;53.868;10.728;2024-02-26T12:37:25;27.33;;;13.50;;
70367;SDS011;57789;53.868;10.728;2024-02-26T12:39:52;30.10;;;13.83;;
70367;SDS011;57789;53.868;10.728;2024-02-26T12:42:18;24.27;;;13.57;;
70367;SDS011;57789;53.868;10.728;2024-02-26T12:44:45;27.27;;;13.93;;
70367;SDS011;57789;53.868;10.728;2024-02-26T12:47:13;24.70;;;14.50;;
70367;SDS011;57789;53.868;10.728;2024-02-26T12:49:42;26.87;;;13.67;;
70367;SDS011;57789;53.868;10.728;2024-02-26T12:52:10;21.73;;;11.67;;
70367;SDS011;57789;53.868;10.728;2024-02-26T12:54:36;27.47;;;11.60;;
70367;SDS011;57789;53.868;10.728;2024-02-26T12:57:06;21.30;;;11.47;;
70367;SDS011;57789;53.868;10.728;2024-02-26T12:59:34;22.93;;;10.90;;
70367;SDS011;57789;53.868;10.728;2024-02-26T13:02:01;25.60;;;14.10;;
70367;SDS011;57789;53.868;10.728;2024-02-26T13:04:28;23.43;;;12.50;;
70367;SDS011;57789;53.868;10.728;2024-02-26T13:06:55;26.53;;;13.17;;
70367;SDS011;57789;53.868;10.728;2024-02-26T13:09:26;25.33;;;12.00;;
70367;SDS011;57789;53.868;10.728;2024-02-26T13:11:55;27.83;;;13.23;;
70367;SDS011;57789;53.868;10.728;2024-02-26T13:14:21;23.57;;;12.57;;
70367;SDS011;57789;53.868;10.728;2024-02-26T13:16:56;21.97;;;11.77;;
70367;SDS011;57789;53.868;10.728;2024-02-26T13:19:22;19.93;;;10.73;;
70367;SDS011;57789;53.868;10.728;2024-02-26T13:21:48;19.30;;;10.43;;
70367;SDS011;57789;53.868;10.728;2024-02-26T13:24:16;18.33;;;10.50;;
70367;SDS011;57789;53.868;10.728;2024-02-26T13:26:43;19.83;;;9.63;;
70367;SDS011;57789;53.868;10.728;2024-02-26T13:29:09;21.83;;;12.60;;
70367;SDS011;57789;53.868;10.728;2024-02-26T13:31:42;23.10;;;11.00;;
70367;SDS011;57789;53.868;10.728;2024-02-26T13:34:08;17.97;;;10.90;;
70367;SDS011;57789;53.868;10.728;2024-02-26T13:36:34;24.20;;;12.47;;
70367;SDS011;57789;53.868;10.728;2024-02-26T13:38:59;23.73;;;13.30;;
70367;SDS011;57789;53.868;10.728;2024-02-26T13:41:26;19.67;;;10.63;;
70367;SDS011;57789;53.868;10.728;2024-02-26T13:43:52;42.77;;;22.37;;
70367;SDS011;57789;53.868;10.728;2024-02-26T13:46:18;23.30;;;12.70;;
70367;SDS011;57789;53.868;10.728;2024-02-26T13:48:44;23.07;;;12.03;;
70367;SDS011;57789;53.868;10.728;2024-02-26T13:51:10;28.30;;;13.90;;
70367;SDS011;57789;53.868;10.728;2024-02-26T13:53:36;25.43;;;11.93;;
70367;SDS011;57789;53.868;10.728;2024-02-26T13:56:02;25.57;;;13.57;;
70367;SDS011;57789;53.868;10.728;2024-02-26T13:58:30;20.67;;;10.33;;
70367;SDS011;57789;53.868;10.728;2024-02-26T14:00:56;24.30;;;12.63;;
70367;SDS011;57789;53.868;10.728;2024-02-26T14:03:24;26.67;;;14.10;;
70367;SDS011;57789;53.868;10.728;2024-02-26T14:05:50;21.87;;;12.57;;
70367;SDS011;57789;53.868;10.728;2024-02-26T14:08:16;20.00;;;11.20;;
70367;SDS011;57789;53.868;10.728;2024-02-26T14:10:42;24.73;;;13.97;;
70367;SDS011;57789;53.868;10.728;2024-02-26T14:13:08;18.10;;;10.70;;
70367;SDS011;57789;53.868;10.728;2024-02-26T14:15:34;24.43;;;12.10;;
70367;SDS011;57789;53.868;10.728;2024-02-26T14:18:00;18.07;;;10.67;;
70367;SDS011;57789;53.868;10.728;2024-02-26T14:20:28;20.30;;;10.87;;
70367;SDS011;57789;53.868;10.728;2024-02-26T14:22:54;23.83;;;10.90;;
70367;SDS011;57789;53.868;10.728;2024-02-26T14:25:22;19.77;;;11.50;;
70367;SDS011;57789;53.868;10.728;2024-02-26T14:27:49;19.13;;;11.20;;